sensor_id;sensor_type;location;lat;lon;timestamp;temperature;humidity
32965;DHT22;19317;48.226;11.686;2023-03-01T00:03:52;1.60;99.90
32965;DHT22;19317;48.226;11.686;2023-03-01T00:08:43;1.60;99.90
32965;DHT22;19317;48.226;11.686;2023-03-01T00:13:34;1.50;99.90
32965;DHT22;19317;48.226;11.686;2023-03-01T00:18:25;1.60;99.90
32965;DHT22;19317;48.226;11.686;2023-03-01T00:23:15;1.50;99.90
32965;DHT22;19317;48.226;11.686;2023-03-01T00:28:06;1.40;99.90
32965;DHT22;19317;48.226;11.686;2023-03-01T00:32:56;1.40;99.90
32965;DHT22;19317;48.226;11.686;2023-03-01T00:37:47;1.50;99.90
32965;DHT22;19317;48.226;11.686;2023-03-01T00:42:37;1.50;99.90
32965;DHT22;19317;48.226;11.686;2023-03-01T00:47:29;1.60;99.90
32965;DHT22;19317;48.226;11.686;2023-03-01T00:52:19;1.50;99.90
32965;DHT22;19317;48.226;11.686;2023-03-01T00:57:10;1.40;99.90
32965;DHT22;19317;48.226;11.686;2023-03-01T01:02:00;1.50;99.90
32965;DHT22;19317;48.226;11.686;2023-03-01T01:06:51;1.40;99.90
32965;DHT22;19317;48.226;11.686;2023-03-01T01:11:41;1.30;99.90
32965;DHT22;19317;48.226;11.686;2023-03-01T01:16:32;1.40;99.90
32965;DHT22;19317;48.226;11.686;2023-03-01T01:21:23;1.30;99.90
32965;DHT22;19317;48.226;11.686;2023-03-01T01:26:20;1.30;99.90
32965;DHT22;19317;48.226;11.686;2023-03-01T01:31:11;1.30;99.90
32965;DHT22;19317;48.226;11.686;2023-03-01T01:36:02;1.40;99.90
32965;DHT22;19317;48.226;11.686;2023-03-01T01:40:52;1.40;99.90
32965;DHT22;19317;48.226;11.686;2023-03-01T01:45:43;1.30;99.90
32965;DHT22;19317;48.226;11.686;2023-03-01T01:50:35;1.30;99.90
32965;DHT22;19317;48.226;11.686;2023-03-01T01:55:27;1.30;99.90
32965;DHT22;19317;48.226;11.686;2023-03-01T02:00:21;1.40;99.90
32965;DHT22;19317;48.226;11.686;2023-03-01T02:05:16;1.30;99.90
32965;DHT22;19317;48.226;11.686;2023-03-01T02:10:10;1.20;99.90
32965;DHT22;19317;48.226;11.686;2023-03-01T02:15:01;1.20;99.90
32965;DHT22;19317;48.226;11.686;2023-03-01T02:25:38;1.20;99.90
32965;DHT22;19317;48.226;11.686;2023-03-01T02:30:32;1.20;99.90
32965;DHT22;19317;48.226;11.686;2023-03-01T02:35:23;1.10;99.90
32965;DHT22;19317;48.226;11.686;2023-03-01T02:40:17;1.00;99.90
32965;DHT22;19317;48.226;11.686;2023-03-01T02:45:08;1.10;99.90
32965;DHT22;19317;48.226;11.686;2023-03-01T02:49:59;1.00;99.90
32965;DHT22;19317;48.226;11.686;2023-03-01T02:55:13;0.90;99.90
32965;DHT22;19317;48.226;11.686;2023-03-01T03:00:08;0.90;99.90
32965;DHT22;19317;48.226;11.686;2023-03-01T03:04:59;0.90;99.90
32965;DHT22;19317;48.226;11.686;2023-03-01T03:09:50;1.00;99.90
32965;DHT22;19317;48.226;11.686;2023-03-01T03:14:40;0.90;99.90
32965;DHT22;19317;48.226;11.686;2023-03-01T03:19:31;0.80;99.90
32965;DHT22;19317;48.226;11.686;2023-03-01T03:24:21;0.90;99.90
32965;DHT22;19317;48.226;11.686;2023-03-01T03:29:11;0.80;99.90
32965;DHT22;19317;48.226;11.686;2023-03-01T03:34:02;0.90;99.90
32965;DHT22;19317;48.226;11.686;2023-03-01T03:38:52;0.90;99.90
32965;DHT22;19317;48.226;11.686;2023-03-01T03:43:43;0.80;99.90
32965;DHT22;19317;48.226;11.686;2023-03-01T03:48:39;0.80;99.90
32965;DHT22;19317;48.226;11.686;2023-03-01T03:53:30;0.80;99.90
32965;DHT22;19317;48.226;11.686;2023-03-01T03:58:22;0.50;99.90
32965;DHT22;19317;48.226;11.686;2023-03-01T04:03:14;0.70;99.90
32965;DHT22;19317;48.226;11.686;2023-03-01T04:08:06;0.60;99.90
32965;DHT22;19317;48.226;11.686;2023-03-01T04:12:57;0.50;99.90
32965;DHT22;19317;48.226;11.686;2023-03-01T04:17:48;0.50;99.90
32965;DHT22;19317;48.226;11.686;2023-03-01T04:22:39;0.50;99.90
32965;DHT22;19317;48.226;11.686;2023-03-01T04:27:30;0.40;99.90
32965;DHT22;19317;48.226;11.686;2023-03-01T04:32:20;0.40;99.90
32965;DHT22;19317;48.226;11.686;2023-03-01T04:37:10;0.30;99.90
32965;DHT22;19317;48.226;11.686;2023-03-01T04:42:01;0.10;99.90
32965;DHT22;19317;48.226;11.686;2023-03-01T04:46:51;0.30;99.90
32965;DHT22;19317;48.226;11.686;2023-03-01T04:51:42;0.10;99.90
32965;DHT22;19317;48.226;11.686;2023-03-01T04:56:32;0.10;99.90
32965;DHT22;19317;48.226;11.686;2023-03-01T05:01:23;0.10;99.90
32965;DHT22;19317;48.226;11.686;2023-03-01T05:06:15;0.00;99.90
32965;DHT22;19317;48.226;11.686;2023-03-01T05:11:05;0.00;99.90
32965;DHT22;19317;48.226;11.686;2023-03-01T05:15:58;0.00;99.90
32965;DHT22;19317;48.226;11.686;2023-03-01T05:20:49;0.00;99.90
32965;DHT22;19317;48.226;11.686;2023-03-01T05:25:40;-0.20;99.90
32965;DHT22;19317;48.226;11.686;2023-03-01T05:30:34;0.00;99.90
32965;DHT22;19317;48.226;11.686;2023-03-01T05:35:24;-0.10;99.90
32965;DHT22;19317;48.226;11.686;2023-03-01T05:40:21;0.00;99.90
32965;DHT22;19317;48.226;11.686;2023-03-01T05:45:14;-0.10;99.90
32965;DHT22;19317;48.226;11.686;2023-03-01T05:50:05;0.00;99.90
32965;DHT22;19317;48.226;11.686;2023-03-01T05:54:55;-0.10;99.90
32965;DHT22;19317;48.226;11.686;2023-03-01T05:59:46;-0.20;99.90
32965;DHT22;19317;48.226;11.686;2023-03-01T06:04:36;-0.10;99.90
32965;DHT22;19317;48.226;11.686;2023-03-01T06:09:27;-0.10;99.90
32965;DHT22;19317;48.226;11.686;2023-03-01T06:14:17;-0.10;99.90
32965;DHT22;19317;48.226;11.686;2023-03-01T06:19:08;-0.20;99.90
32965;DHT22;19317;48.226;11.686;2023-03-01T06:23:58;-0.30;99.90
32965;DHT22;19317;48.226;11.686;2023-03-01T06:28:49;-0.30;99.90
32965;DHT22;19317;48.226;11.686;2023-03-01T06:33:39;-0.20;99.90
32965;DHT22;19317;48.226;11.686;2023-03-01T06:38:30;-0.30;99.90
32965;DHT22;19317;48.226;11.686;2023-03-01T06:43:21;-0.20;99.90
32965;DHT22;19317;48.226;11.686;2023-03-01T06:48:11;-0.20;99.90
32965;DHT22;19317;48.226;11.686;2023-03-01T06:53:02;-0.20;99.90
32965;DHT22;19317;48.226;11.686;2023-03-01T06:58:00;1.00;99.90
32965;DHT22;19317;48.226;11.686;2023-03-01T07:02:51;1.00;99.90
32965;DHT22;19317;48.226;11.686;2023-03-01T07:07:42;0.40;99.90
32965;DHT22;19317;48.226;11.686;2023-03-01T07:12:33;0.00;99.90
32965;DHT22;19317;48.226;11.686;2023-03-01T07:17:23;0.00;99.90
32965;DHT22;19317;48.226;11.686;2023-03-01T07:22:14;0.00;99.90
32965;DHT22;19317;48.226;11.686;2023-03-01T07:27:04;-0.20;99.90
32965;DHT22;19317;48.226;11.686;2023-03-01T07:31:55;0.00;99.90
32965;DHT22;19317;48.226;11.686;2023-03-01T07:36:45;-0.10;99.90
32965;DHT22;19317;48.226;11.686;2023-03-01T07:41:36;0.10;99.90
32965;DHT22;19317;48.226;11.686;2023-03-01T07:46:26;0.10;99.90
32965;DHT22;19317;48.226;11.686;2023-03-01T07:51:17;0.00;99.90
32965;DHT22;19317;48.226;11.686;2023-03-01T07:56:10;-0.10;99.90
32965;DHT22;19317;48.226;11.686;2023-03-01T08:01:02;-0.10;99.90
32965;DHT22;19317;48.226;11.686;2023-03-01T08:05:52;0.10;99.90
32965;DHT22;19317;48.226;11.686;2023-03-01T08:10:43;0.10;99.90
32965;DHT22;19317;48.226;11.686;2023-03-01T08:15:33;0.00;99.90
32965;DHT22;19317;48.226;11.686;2023-03-01T08:20:24;0.10;99.90
32965;DHT22;19317;48.226;11.686;2023-03-01T08:25:14;0.10;99.90
32965;DHT22;19317;48.226;11.686;2023-03-01T08:30:05;0.20;99.90
32965;DHT22;19317;48.226;11.686;2023-03-01T08:34:56;0.10;99.90
32965;DHT22;19317;48.226;11.686;2023-03-01T08:39:47;0.40;99.90
32965;DHT22;19317;48.226;11.686;2023-03-01T08:44:37;0.40;99.90
32965;DHT22;19317;48.226;11.686;2023-03-01T08:49:28;0.50;99.90
32965;DHT22;19317;48.226;11.686;2023-03-01T08:54:20;0.50;99.90
32965;DHT22;19317;48.226;11.686;2023-03-01T08:59:12;0.60;99.90
32965;DHT22;19317;48.226;11.686;2023-03-01T09:04:03;0.60;99.90
32965;DHT22;19317;48.226;11.686;2023-03-01T09:08:54;0.60;99.90
32965;DHT22;19317;48.226;11.686;2023-03-01T09:13:45;0.80;99.90
32965;DHT22;19317;48.226;11.686;2023-03-01T09:18:36;0.70;99.90
32965;DHT22;19317;48.226;11.686;2023-03-01T09:23:27;0.60;99.90
32965;DHT22;19317;48.226;11.686;2023-03-01T09:28:17;0.80;99.90
32965;DHT22;19317;48.226;11.686;2023-03-01T09:33:08;0.90;99.90
32965;DHT22;19317;48.226;11.686;2023-03-01T09:37:58;0.90;99.90
32965;DHT22;19317;48.226;11.686;2023-03-01T09:42:54;1.00;99.90
32965;DHT22;19317;48.226;11.686;2023-03-01T09:47:46;1.00;99.90
32965;DHT22;19317;48.226;11.686;2023-03-01T09:52:46;1.10;99.90
32965;DHT22;19317;48.226;11.686;2023-03-01T10:02:57;1.30;99.90
32965;DHT22;19317;48.226;11.686;2023-03-01T10:07:56;1.50;99.90
32965;DHT22;19317;48.226;11.686;2023-03-01T10:12:49;1.50;99.90
32965;DHT22;19317;48.226;11.686;2023-03-01T10:22:39;1.50;99.90
32965;DHT22;19317;48.226;11.686;2023-03-01T10:27:55;1.60;99.90
32965;DHT22;19317;48.226;11.686;2023-03-01T10:32:53;1.50;99.90
32965;DHT22;19317;48.226;11.686;2023-03-01T10:38:04;1.80;99.90
32965;DHT22;19317;48.226;11.686;2023-03-01T10:42:58;1.90;99.90
32965;DHT22;19317;48.226;11.686;2023-03-01T10:48:24;2.20;99.90
32965;DHT22;19317;48.226;11.686;2023-03-01T10:53:40;2.30;99.90
32965;DHT22;19317;48.226;11.686;2023-03-01T10:58:33;2.50;99.90
32965;DHT22;19317;48.226;11.686;2023-03-01T11:03:33;2.80;99.90
32965;DHT22;19317;48.226;11.686;2023-03-01T11:13:29;3.00;99.90
32965;DHT22;19317;48.226;11.686;2023-03-01T11:18:21;3.00;99.90
32965;DHT22;19317;48.226;11.686;2023-03-01T11:23:13;3.10;99.90
32965;DHT22;19317;48.226;11.686;2023-03-01T11:28:06;3.10;99.90
32965;DHT22;19317;48.226;11.686;2023-03-01T11:38:35;3.30;99.90
32965;DHT22;19317;48.226;11.686;2023-03-01T11:48:42;3.60;99.90
32965;DHT22;19317;48.226;11.686;2023-03-01T12:03:43;3.90;99.90
32965;DHT22;19317;48.226;11.686;2023-03-01T12:13:55;4.00;99.90
32965;DHT22;19317;48.226;11.686;2023-03-01T12:29:52;4.40;99.90
32965;DHT22;19317;48.226;11.686;2023-03-01T12:55:33;5.20;99.90
32965;DHT22;19317;48.226;11.686;2023-03-01T13:00:38;5.40;99.90
32965;DHT22;19317;48.226;11.686;2023-03-01T13:06:02;5.50;99.90
32965;DHT22;19317;48.226;11.686;2023-03-01T13:11:02;5.50;99.90
32965;DHT22;19317;48.226;11.686;2023-03-01T13:15:54;5.80;99.90
32965;DHT22;19317;48.226;11.686;2023-03-01T13:20:49;5.90;99.90
32965;DHT22;19317;48.226;11.686;2023-03-01T13:30:55;6.40;99.90
32965;DHT22;19317;48.226;11.686;2023-03-01T13:35:45;6.30;99.90
32965;DHT22;19317;48.226;11.686;2023-03-01T13:45:39;6.40;99.90
32965;DHT22;19317;48.226;11.686;2023-03-01T13:50:43;6.70;99.90
32965;DHT22;19317;48.226;11.686;2023-03-01T13:55:40;6.70;99.90
32965;DHT22;19317;48.226;11.686;2023-03-01T14:00:35;7.00;99.90
32965;DHT22;19317;48.226;11.686;2023-03-01T14:05:26;7.00;99.90
32965;DHT22;19317;48.226;11.686;2023-03-01T14:10:17;7.10;99.90
32965;DHT22;19317;48.226;11.686;2023-03-01T14:20:24;7.60;99.90
32965;DHT22;19317;48.226;11.686;2023-03-01T14:25:22;7.60;99.90
32965;DHT22;19317;48.226;11.686;2023-03-01T14:35:20;7.70;99.90
32965;DHT22;19317;48.226;11.686;2023-03-01T14:40:30;7.60;99.90
32965;DHT22;19317;48.226;11.686;2023-03-01T14:45:23;7.70;99.90
32965;DHT22;19317;48.226;11.686;2023-03-01T14:50:32;7.60;99.90
32965;DHT22;19317;48.226;11.686;2023-03-01T14:55:33;7.60;99.90
32965;DHT22;19317;48.226;11.686;2023-03-01T15:00:27;7.70;99.90
32965;DHT22;19317;48.226;11.686;2023-03-01T15:05:24;7.90;99.90
32965;DHT22;19317;48.226;11.686;2023-03-01T15:10:20;8.20;99.90
32965;DHT22;19317;48.226;11.686;2023-03-01T15:20:19;8.50;99.90
32965;DHT22;19317;48.226;11.686;2023-03-01T15:25:15;8.70;99.90
32965;DHT22;19317;48.226;11.686;2023-03-01T15:30:13;8.70;99.90
32965;DHT22;19317;48.226;11.686;2023-03-01T15:35:34;8.70;99.90
32965;DHT22;19317;48.226;11.686;2023-03-01T15:40:30;8.80;99.90
32965;DHT22;19317;48.226;11.686;2023-03-01T15:45:23;8.10;99.90
32965;DHT22;19317;48.226;11.686;2023-03-01T15:55:17;8.30;99.90
32965;DHT22;19317;48.226;11.686;2023-03-01T16:00:11;8.30;99.90
32965;DHT22;19317;48.226;11.686;2023-03-01T16:05:02;7.90;99.90
32965;DHT22;19317;48.226;11.686;2023-03-01T16:09:53;8.00;99.90
32965;DHT22;19317;48.226;11.686;2023-03-01T16:14:43;7.80;99.90
32965;DHT22;19317;48.226;11.686;2023-03-01T16:19:34;7.80;99.90
32965;DHT22;19317;48.226;11.686;2023-03-01T16:24:24;7.70;99.90
32965;DHT22;19317;48.226;11.686;2023-03-01T16:29:15;7.50;99.90
32965;DHT22;19317;48.226;11.686;2023-03-01T16:34:05;7.40;99.90
32965;DHT22;19317;48.226;11.686;2023-03-01T16:38:58;7.40;99.90
32965;DHT22;19317;48.226;11.686;2023-03-01T16:43:50;7.40;99.90
32965;DHT22;19317;48.226;11.686;2023-03-01T16:48:40;7.40;99.90
32965;DHT22;19317;48.226;11.686;2023-03-01T16:53:31;7.30;99.90
32965;DHT22;19317;48.226;11.686;2023-03-01T16:58:21;7.10;99.90
32965;DHT22;19317;48.226;11.686;2023-03-01T17:03:12;6.70;99.90
32965;DHT22;19317;48.226;11.686;2023-03-01T17:08:03;6.60;99.90
32965;DHT22;19317;48.226;11.686;2023-03-01T17:12:53;6.60;99.90
32965;DHT22;19317;48.226;11.686;2023-03-01T17:17:44;6.60;99.90
32965;DHT22;19317;48.226;11.686;2023-03-01T17:22:34;6.40;99.90
32965;DHT22;19317;48.226;11.686;2023-03-01T17:27:25;6.50;99.90
32965;DHT22;19317;48.226;11.686;2023-03-01T17:32:15;6.40;99.90
32965;DHT22;19317;48.226;11.686;2023-03-01T17:37:06;6.40;99.90
32965;DHT22;19317;48.226;11.686;2023-03-01T17:41:56;6.30;99.90
32965;DHT22;19317;48.226;11.686;2023-03-01T17:46:47;6.20;99.90
32965;DHT22;19317;48.226;11.686;2023-03-01T17:51:37;6.20;99.90
32965;DHT22;19317;48.226;11.686;2023-03-01T17:56:28;6.00;99.90
32965;DHT22;19317;48.226;11.686;2023-03-01T18:01:20;5.90;99.90
32965;DHT22;19317;48.226;11.686;2023-03-01T18:06:34;5.90;99.90
32965;DHT22;19317;48.226;11.686;2023-03-01T18:11:24;5.80;99.90
32965;DHT22;19317;48.226;11.686;2023-03-01T18:16:16;5.60;99.90
32965;DHT22;19317;48.226;11.686;2023-03-01T18:21:07;5.50;99.90
32965;DHT22;19317;48.226;11.686;2023-03-01T18:26:00;5.30;99.90
32965;DHT22;19317;48.226;11.686;2023-03-01T18:30:58;5.10;99.90
32965;DHT22;19317;48.226;11.686;2023-03-01T18:35:49;5.20;99.90
32965;DHT22;19317;48.226;11.686;2023-03-01T18:40:41;5.20;99.90
32965;DHT22;19317;48.226;11.686;2023-03-01T18:45:32;5.10;99.90
32965;DHT22;19317;48.226;11.686;2023-03-01T18:50:22;5.10;99.90
32965;DHT22;19317;48.226;11.686;2023-03-01T18:55:13;4.90;99.90
32965;DHT22;19317;48.226;11.686;2023-03-01T19:00:03;4.90;99.90
32965;DHT22;19317;48.226;11.686;2023-03-01T19:04:54;4.90;99.90
32965;DHT22;19317;48.226;11.686;2023-03-01T19:09:44;5.00;99.90
32965;DHT22;19317;48.226;11.686;2023-03-01T19:14:35;5.00;99.90
32965;DHT22;19317;48.226;11.686;2023-03-01T19:19:25;4.90;99.90
32965;DHT22;19317;48.226;11.686;2023-03-01T19:24:16;4.70;99.90
32965;DHT22;19317;48.226;11.686;2023-03-01T19:29:07;4.60;99.90
32965;DHT22;19317;48.226;11.686;2023-03-01T19:33:58;4.60;99.90
32965;DHT22;19317;48.226;11.686;2023-03-01T19:38:48;4.60;99.90
32965;DHT22;19317;48.226;11.686;2023-03-01T19:43:39;4.60;99.90
32965;DHT22;19317;48.226;11.686;2023-03-01T19:48:30;4.50;99.90
32965;DHT22;19317;48.226;11.686;2023-03-01T19:53:21;4.50;99.90
32965;DHT22;19317;48.226;11.686;2023-03-01T19:58:12;4.50;99.90
32965;DHT22;19317;48.226;11.686;2023-03-01T20:03:03;4.60;99.90
32965;DHT22;19317;48.226;11.686;2023-03-01T20:07:54;4.40;99.90
32965;DHT22;19317;48.226;11.686;2023-03-01T20:12:44;4.50;99.90
32965;DHT22;19317;48.226;11.686;2023-03-01T20:17:35;4.30;99.90
32965;DHT22;19317;48.226;11.686;2023-03-01T20:22:25;4.30;99.90
32965;DHT22;19317;48.226;11.686;2023-03-01T20:27:16;4.20;99.90
32965;DHT22;19317;48.226;11.686;2023-03-01T20:32:07;4.10;99.90
32965;DHT22;19317;48.226;11.686;2023-03-01T20:36:57;3.90;99.90
32965;DHT22;19317;48.226;11.686;2023-03-01T20:41:47;3.90;99.90
32965;DHT22;19317;48.226;11.686;2023-03-01T20:46:38;4.20;99.90
32965;DHT22;19317;48.226;11.686;2023-03-01T20:51:28;4.00;99.90
32965;DHT22;19317;48.226;11.686;2023-03-01T20:56:20;4.00;99.90
32965;DHT22;19317;48.226;11.686;2023-03-01T21:01:16;4.00;99.90
32965;DHT22;19317;48.226;11.686;2023-03-01T21:06:06;3.80;99.90
32965;DHT22;19317;48.226;11.686;2023-03-01T21:10:57;3.70;99.90
32965;DHT22;19317;48.226;11.686;2023-03-01T21:20:42;3.90;99.90
32965;DHT22;19317;48.226;11.686;2023-03-01T21:25:32;3.80;99.90
32965;DHT22;19317;48.226;11.686;2023-03-01T21:30:23;3.80;99.90
32965;DHT22;19317;48.226;11.686;2023-03-01T21:35:13;3.70;99.90
32965;DHT22;19317;48.226;11.686;2023-03-01T21:40:04;3.50;99.90
32965;DHT22;19317;48.226;11.686;2023-03-01T21:44:55;3.50;99.90
32965;DHT22;19317;48.226;11.686;2023-03-01T21:49:45;3.50;99.90
32965;DHT22;19317;48.226;11.686;2023-03-01T21:54:36;3.30;99.90
32965;DHT22;19317;48.226;11.686;2023-03-01T21:59:26;3.30;99.90
32965;DHT22;19317;48.226;11.686;2023-03-01T22:04:17;3.30;99.90
32965;DHT22;19317;48.226;11.686;2023-03-01T22:09:18;3.30;99.90
32965;DHT22;19317;48.226;11.686;2023-03-01T22:14:08;3.10;99.90
32965;DHT22;19317;48.226;11.686;2023-03-01T22:18:59;3.10;99.90
32965;DHT22;19317;48.226;11.686;2023-03-01T22:23:51;3.00;99.90
32965;DHT22;19317;48.226;11.686;2023-03-01T22:28:41;3.00;99.90
32965;DHT22;19317;48.226;11.686;2023-03-01T22:33:32;2.90;99.90
32965;DHT22;19317;48.226;11.686;2023-03-01T22:38:22;3.20;99.90
32965;DHT22;19317;48.226;11.686;2023-03-01T22:43:13;3.20;99.90
32965;DHT22;19317;48.226;11.686;2023-03-01T22:48:03;3.10;99.90
32965;DHT22;19317;48.226;11.686;2023-03-01T22:52:54;2.80;99.90
32965;DHT22;19317;48.226;11.686;2023-03-01T22:57:49;2.90;99.90
32965;DHT22;19317;48.226;11.686;2023-03-01T23:02:39;2.90;99.90
32965;DHT22;19317;48.226;11.686;2023-03-01T23:07:30;2.80;99.90
32965;DHT22;19317;48.226;11.686;2023-03-01T23:12:20;2.80;99.90
32965;DHT22;19317;48.226;11.686;2023-03-01T23:17:10;2.80;99.90
32965;DHT22;19317;48.226;11.686;2023-03-01T23:22:01;2.80;99.90
32965;DHT22;19317;48.226;11.686;2023-03-01T23:26:51;2.70;99.90
32965;DHT22;19317;48.226;11.686;2023-03-01T23:31:42;2.80;99.90
32965;DHT22;19317;48.226;11.686;2023-03-01T23:36:33;2.80;99.90
32965;DHT22;19317;48.226;11.686;2023-03-01T23:41:26;2.50;99.90
32965;DHT22;19317;48.226;11.686;2023-03-01T23:46:18;2.60;99.90
32965;DHT22;19317;48.226;11.686;2023-03-01T23:51:09;2.70;99.90
32965;DHT22;19317;48.226;11.686;2023-03-01T23:56:00;2.70;99.90
